Time;durP1;ratioP1;P1;durP2;ratioP2;P2;SDS_P1;SDS_P2;PMS_P1;PMS_P2;Temp;Humidity;BMP_temperature;BMP_pressure;BME280_temperature;BME280_humidity;BME280_pressure;Samples;Min_cycle;Max_cycle;Signal;HPM_P1;HPM_P2
2022/10/31 00:00:58;;;;;;;27.67;15.13;;;;;;;7.99;93.65;99201.23;2172144;81;20997;-82
2022/10/31 00:03:58;;;;;;;23.67;15.07;;;;;;;7.99;93.66;99200.34;2170275;81;20929;-82
2022/10/31 00:06:58;;;;;;;27.30;17.67;;;;;;;7.98;93.99;99194.27;2172067;81;21293;-82
2022/10/31 00:09:59;;;;;;;27.93;16.10;;;;;;;7.97;94.04;99199.42;2171038;81;20965;-82
2022/10/31 00:12:59;;;;;;;25.60;15.80;;;;;;;7.91;93.78;99194.06;2170252;81;20965;-82
2022/10/31 00:15:59;;;;;;;30.23;17.73;;;;;;;7.86;93.64;99198.25;2170220;81;20922;-82
2022/10/31 00:19:00;;;;;;;31.63;17.97;;;;;;;7.84;93.83;99199.92;2171034;81;20969;-82
2022/10/31 00:22:00;;;;;;;30.50;17.57;;;;;;;7.81;94.08;99195.52;2170856;81;20988;-82
2022/10/31 00:25:01;;;;;;;31.20;17.93;;;;;;;7.80;94.10;99198.04;2169961;81;21378;-83
2022/10/31 00:28:01;;;;;;;28.10;17.37;;;;;;;7.77;93.98;99200.55;2171076;81;20917;-83
2022/10/31 00:31:01;;;;;;;27.37;17.50;;;;;;;7.74;93.68;99198.75;2170082;81;20945;-83
2022/10/31 00:34:02;;;;;;;29.53;17.50;;;;;;;7.69;93.49;99200.33;2172018;81;20990;-83
2022/10/31 00:37:02;;;;;;;28.20;16.43;;;;;;;7.67;93.77;99199.41;2171322;81;20925;-83
2022/10/31 00:40:03;;;;;;;27.97;16.43;;;;;;;7.67;93.69;99205.48;2170133;81;21309;-83
2022/10/31 00:43:03;;;;;;;28.53;17.67;;;;;;;7.67;93.78;99197.69;2170917;81;20958;-83
2022/10/31 00:46:04;;;;;;;33.60;16.67;;;;;;;7.66;94.14;99196.34;2170307;82;20945;-83
2022/10/31 00:49:04;;;;;;;21.27;13.50;;;;;;;7.67;94.12;99198.11;2170827;81;20957;-82
2022/10/31 00:52:04;;;;;;;26.27;15.83;;;;;;;7.63;93.35;99194.96;2169991;81;20981;-83
2022/10/31 00:55:05;;;;;;;38.10;18.33;;;;;;;7.64;93.58;99199.31;2171479;81;21301;-82
2022/10/31 00:58:05;;;;;;;34.97;16.87;;;;;;;7.61;93.67;99189.72;2171542;81;20982;-83
2022/10/31 01:01:06;;;;;;;34.17;20.23;;;;;;;7.61;93.75;99203.13;2171153;81;20977;-83
2022/10/31 01:04:06;;;;;;;36.23;21.87;;;;;;;7.58;93.49;99200.44;2170766;81;21388;-82
2022/10/31 01:07:06;;;;;;;35.63;21.77;;;;;;;7.56;93.39;99206.02;2171275;81;20977;-83
2022/10/31 01:10:07;;;;;;;36.87;21.83;;;;;;;7.53;93.35;99211.99;2172110;82;20960;-82
2022/10/31 01:13:07;;;;;;;36.57;22.43;;;;;;;7.57;94.05;99208.66;2171379;81;20940;-82
2022/10/31 01:16:08;;;;;;;35.67;20.57;;;;;;;7.58;93.72;99207.81;2171459;81;21326;-84
2022/10/31 01:19:08;;;;;;;34.70;21.83;;;;;;;7.56;93.58;99208.19;2170611;81;20902;-84
2022/10/31 01:22:08;;;;;;;35.47;20.03;;;;;;;7.55;93.50;99214.22;2170569;81;20992;-83
2022/10/31 01:25:09;;;;;;;34.27;21.37;;;;;;;7.52;93.21;99218.02;2169288;81;21380;-83
2022/10/31 01:28:09;;;;;;;44.63;21.97;;;;;;;7.47;93.24;99215.71;2168991;81;20957;-83
2022/10/31 01:31:10;;;;;;;29.47;19.00;;;;;;;7.45;93.27;99218.67;2172218;81;20980;-83
2022/10/31 01:34:10;;;;;;;30.40;21.00;;;;;;;7.41;92.61;99213.34;2170765;81;21312;-84
2022/10/31 01:37:10;;;;;;;39.27;21.37;;;;;;;7.34;92.97;99209.69;2171457;81;20953;-85
2022/10/31 01:40:11;;;;;;;38.10;21.93;;;;;;;7.34;93.24;99213.58;2172631;81;20968;-84
2022/10/31 01:43:11;;;;;;;37.53;20.07;;;;;;;7.29;93.22;99214.73;2172155;81;21052;-84
2022/10/31 01:46:12;;;;;;;26.73;18.27;;;;;;;7.29;93.29;99217.75;2171079;81;21035;-84
2022/10/31 01:49:13;;;;;;;28.77;18.03;;;;;;;7.28;92.93;99212.09;2171437;81;20980;-85
2022/10/31 01:52:13;;;;;;;31.30;18.23;;;;;;;7.27;92.88;99217.70;2171268;81;21000;-84
2022/10/31 01:55:14;;;;;;;34.07;17.73;;;;;;;7.27;92.83;99222.90;2172504;81;20988;-84
2022/10/31 01:58:14;;;;;;;27.77;16.90;;;;;;;7.25;92.78;99216.77;2171021;81;20894;-83
2022/10/31 02:01:14;;;;;;;33.13;17.30;;;;;;;7.23;92.73;99213.25;2170577;81;21000;-84
2022/10/31 02:04:15;;;;;;;151.50;24.77;;;;;;;7.23;92.64;99217.56;2170561;81;21309;-84
2022/10/31 02:07:15;;;;;;;120.67;23.63;;;;;;;7.19;92.56;99217.00;2170021;81;20972;-84
2022/10/31 02:10:16;;;;;;;48.97;18.30;;;;;;;7.17;92.63;99218.67;2169871;81;20957;-83
2022/10/31 02:13:16;;;;;;;31.17;17.57;;;;;;;7.14;92.58;99216.86;2171225;81;20977;-83
2022/10/31 02:16:16;;;;;;;27.40;17.80;;;;;;;7.13;92.66;99218.11;2170217;81;20972;-84
2022/10/31 02:19:17;;;;;;;26.67;17.93;;;;;;;7.11;92.51;99215.88;2171490;81;20960;-82
2022/10/31 02:22:17;;;;;;;23.93;16.80;;;;;;;7.09;92.63;99214.95;2170882;81;21034;-83
2022/10/31 02:25:18;;;;;;;30.93;17.13;;;;;;;7.08;92.56;99217.97;2170547;81;20937;-83
2022/10/31 02:28:18;;;;;;;35.43;17.60;;;;;;;7.09;92.60;99213.24;2172310;81;20969;-83
2022/10/31 02:31:18;;;;;;;28.07;16.87;;;;;;;7.09;92.31;99219.73;2170964;81;20993;-83
2022/10/31 02:34:19;;;;;;;25.83;16.37;;;;;;;7.05;92.13;99228.67;2170640;81;21306;-83
2022/10/31 02:37:19;;;;;;;25.37;17.70;;;;;;;7.03;92.15;99224.31;2170832;81;20964;-83
2022/10/31 02:40:20;;;;;;;23.67;16.47;;;;;;;7.01;92.18;99228.58;2170757;81;21057;-83
2022/10/31 02:43:20;;;;;;;27.53;16.80;;;;;;;6.99;92.14;99222.45;2171131;81;20944;-82
2022/10/31 02:46:21;;;;;;;24.57;17.40;;;;;;;6.97;91.94;99225.41;2171209;81;20960;-83
2022/10/31 02:49:21;;;;;;;29.30;17.60;;;;;;;6.95;91.98;99228.80;2171167;81;20973;-83
2022/10/31 02:52:21;;;;;;;29.43;17.33;;;;;;;6.92;92.01;99224.77;2171634;81;21031;-83
2022/10/31 02:55:22;;;;;;;32.20;18.83;;;;;;;6.86;91.66;99224.16;2171149;81;21396;-83
2022/10/31 02:58:23;;;;;;;24.67;17.17;;;;;;;6.82;91.71;99227.48;2171611;81;21368;-83
2022/10/31 03:01:23;;;;;;;26.83;18.17;;;;;;;6.81;91.82;99226.14;2170397;82;20969;-83
2022/10/31 03:04:23;;;;;;;31.13;17.93;;;;;;;6.79;91.90;99218.72;2172270;82;20980;-83
2022/10/31 03:07:23;;;;;;;28.30;17.47;;;;;;;6.80;92.15;99229.56;2171228;81;20941;-82
2022/10/31 03:10:24;;;;;;;28.60;17.57;;;;;;;6.79;92.14;99229.98;2172328;81;21001;-83
2022/10/31 03:13:24;;;;;;;26.77;17.43;;;;;;;6.74;91.86;99234.13;2170198;81;20934;-83
2022/10/31 03:16:25;;;;;;;25.90;17.77;;;;;;;6.71;91.80;99232.32;2171406;81;21336;-83
2022/10/31 03:19:25;;;;;;;25.17;16.17;;;;;;;6.68;91.67;99231.34;2171357;81;21021;-83
2022/10/31 03:22:25;;;;;;;117.07;21.93;;;;;;;6.65;91.93;99232.53;2170110;81;20937;-84
2022/10/31 03:25:26;;;;;;;37.53;17.53;;;;;;;6.62;91.92;99234.61;2172021;81;20902;-84
2022/10/31 03:28:26;;;;;;;26.20;15.93;;;;;;;6.62;92.16;99232.43;2170989;81;20973;-84
2022/10/31 03:31:27;;;;;;;32.73;17.37;;;;;;;6.60;92.14;99229.78;2171968;81;20960;-83
2022/10/31 03:34:27;;;;;;;87.53;21.93;;;;;;;6.59;92.08;99228.02;2171581;81;21008;-85
2022/10/31 03:37:27;;;;;;;34.17;17.97;;;;;;;6.59;92.09;99236.22;2170938;81;20929;-84
2022/10/31 03:40:28;;;;;;;27.77;17.47;;;;;;;6.58;92.07;99239.23;2172098;81;20993;-84
2022/10/31 03:43:28;;;;;;;27.53;17.07;;;;;;;6.56;92.26;99242.19;2171204;81;20924;-84
2022/10/31 03:46:29;;;;;;;24.13;16.77;;;;;;;6.58;92.18;99243.53;2172288;81;20922;-84
2022/10/31 03:49:29;;;;;;;23.87;16.23;;;;;;;6.59;92.17;99246.17;2170860;82;20965;-84
2022/10/31 03:52:29;;;;;;;25.93;16.53;;;;;;;6.58;91.77;99246.13;2170864;81;21029;-84
2022/10/31 03:55:30;;;;;;;26.70;16.13;;;;;;;6.55;91.72;99243.02;2170212;81;20977;-84
2022/10/31 03:58:32;;;;;;;22.03;15.90;;;;;;;6.53;91.67;99246.39;2170183;81;20933;-85
2022/10/31 04:01:31;;;;;;;21.73;15.50;;;;;;;6.49;91.62;99247.11;2170361;81;21005;-85
2022/10/31 04:04:31;;;;;;;22.97;16.00;;;;;;;6.46;91.69;99250.48;2171067;81;20930;-84
2022/10/31 04:07:31;;;;;;;32.83;16.40;;;;;;;6.46;91.79;99246.59;2171940;81;21367;-84
2022/10/31 04:10:32;;;;;;;27.00;16.67;;;;;;;6.42;91.49;99244.72;2171891;81;20948;-85
2022/10/31 04:13:32;;;;;;;24.43;15.80;;;;;;;6.38;91.58;99246.33;2172183;81;21020;-85
2022/10/31 04:16:33;;;;;;;23.60;15.17;;;;;;;6.33;91.65;99248.30;2171901;81;21297;-84
2022/10/31 04:19:33;;;;;;;24.90;15.87;;;;;;;6.28;91.35;99247.25;2171356;81;20981;-84
2022/10/31 04:22:33;;;;;;;24.83;16.10;;;;;;;6.22;91.29;99253.52;2171645;81;21028;-85
2022/10/31 04:25:34;;;;;;;24.20;15.97;;;;;;;6.20;91.87;99255.17;2171375;81;21337;-85
2022/10/31 04:28:34;;;;;;;20.73;15.57;;;;;;;6.20;91.70;99266.42;2172188;81;20937;-85
2022/10/31 04:31:35;;;;;;;29.73;17.43;;;;;;;6.18;91.77;99268.08;2171549;81;20949;-85
2022/10/31 04:34:35;;;;;;;28.77;16.63;;;;;;;6.18;92.02;99264.60;2170795;81;20917;-85
2022/10/31 04:37:35;;;;;;;23.77;15.50;;;;;;;6.18;91.91;99264.19;2171061;81;20983;-83
2022/10/31 04:40:36;;;;;;;25.47;14.80;;;;;;;6.19;92.21;99261.19;2169743;82;21060;-83
2022/10/31 04:43:36;;;;;;;20.93;15.47;;;;;;;6.17;92.14;99266.31;2171791;81;20929;-84
2022/10/31 04:46:37;;;;;;;24.93;15.57;;;;;;;6.16;91.80;99259.36;2169423;81;20941;-84
2022/10/31 04:49:37;;;;;;;26.77;16.10;;;;;;;6.15;91.55;99256.72;2169646;81;21031;-85
2022/10/31 04:52:37;;;;;;;30.07;14.53;;;;;;;6.12;91.73;99262.67;2168920;81;21011;-85
2022/10/31 04:55:38;;;;;;;20.83;14.37;;;;;;;6.10;91.76;99260.86;2171054;81;21472;-85
2022/10/31 04:58:38;;;;;;;24.63;15.27;;;;;;;6.08;91.73;99262.09;2167895;81;21035;-84
2022/10/31 05:01:39;;;;;;;24.87;14.77;;;;;;;6.09;91.79;99262.56;2168588;81;21036;-82
2022/10/31 05:04:39;;;;;;;41.53;17.03;;;;;;;6.03;91.27;99260.60;2167444;81;21008;-83
2022/10/31 05:07:40;;;;;;;27.63;15.20;;;;;;;6.00;91.63;99264.38;2167271;81;20981;-84
2022/10/31 05:10:40;;;;;;;21.30;14.57;;;;;;;5.98;91.58;99257.38;2169150;81;21474;-83
2022/10/31 05:13:40;;;;;;;29.97;14.30;;;;;;;5.97;91.61;99260.80;2166185;82;21407;-80
2022/10/31 05:16:41;;;;;;;26.67;14.83;;;;;;;5.97;91.58;99263.38;2167189;81;21033;-83
2022/10/31 05:19:41;;;;;;;323.77;30.03;;;;;;;7.87;100.00;99261.09;2168860;81;21059;-79
2022/10/31 05:22:41;;;;;;;77.03;16.43;;;;;;;9.98;100.00;99255.59;2168506;81;21750;-83
2022/10/31 05:25:42;;;;;;;37.27;14.40;;;;;;;11.30;100.00;99252.87;2168434;81;20996;-83
2022/10/31 05:28:42;;;;;;;33.83;14.47;;;;;;;12.20;100.00;99251.97;2169142;81;20985;-84
2022/10/31 05:31:43;;;;;;;29.80;14.77;;;;;;;12.80;96.73;99249.55;2168165;81;21000;-82
2022/10/31 05:34:43;;;;;;;27.30;14.03;;;;;;;12.12;81.70;99254.03;2169832;81;21364;-84
2022/10/31 05:37:43;;;;;;;17.90;13.43;;;;;;;10.57;78.38;99265.96;2169886;81;20976;-83
2022/10/31 05:40:44;;;;;;;28.80;14.60;;;;;;;9.44;78.48;99278.27;2170318;81;20980;-81
2022/10/31 05:43:44;;;;;;;29.77;13.23;;;;;;;8.64;79.49;99285.81;2168431;81;21328;-84
2022/10/31 05:46:45;;;;;;;23.73;13.73;;;;;;;8.03;80.13;99285.80;2169829;81;21018;-84
2022/10/31 05:49:45;;;;;;;18.10;12.57;;;;;;;7.56;81.27;99288.72;2168911;81;20959;-81
2022/10/31 05:52:46;;;;;;;56.00;35.73;;;;;;;7.24;82.43;99282.52;2166607;81;22016;-81
2022/10/31 05:55:46;;;;;;;28.03;17.97;;;;;;;7.02;82.92;99287.44;2167562;81;21360;-83
2022/10/31 05:58:46;;;;;;;56.97;15.53;;;;;;;6.83;83.79;99288.93;2169261;81;21017;-83
2022/10/31 06:01:47;;;;;;;37.53;14.87;;;;;;;6.68;84.43;99291.00;2168129;81;20988;-81
2022/10/31 06:04:47;;;;;;;28.43;14.53;;;;;;;6.58;85.20;99295.41;2169298;81;20952;-84
2022/10/31 06:07:48;;;;;;;20.67;14.50;;;;;;;6.52;85.80;99297.79;2169507;81;21017;-83
2022/10/31 06:10:48;;;;;;;63.17;15.40;;;;;;;6.48;86.45;99299.39;2169077;81;20960;-84
2022/10/31 06:13:48;;;;;;;164.13;20.77;;;;;;;6.48;86.84;99296.80;2168544;81;20968;-83
2022/10/31 06:16:49;;;;;;;23.23;14.20;;;;;;;6.52;87.60;99299.97;2169487;81;21664;-83
2022/10/31 06:19:49;;;;;;;18.27;13.33;;;;;;;6.56;87.56;99300.55;2167602;82;21019;-84
2022/10/31 06:22:49;;;;;;;20.27;14.33;;;;;;;6.57;87.43;99301.42;2167736;81;21071;-81
2022/10/31 06:25:50;;;;;;;20.70;13.50;;;;;;;6.61;87.90;99297.69;2168883;81;20936;-85
2022/10/31 06:28:50;;;;;;;34.80;16.10;;;;;;;6.70;88.48;99310.09;2166966;81;20952;-84
2022/10/31 06:31:51;;;;;;;25.63;14.47;;;;;;;6.82;88.84;99307.04;2167615;81;20997;-84
2022/10/31 06:34:51;;;;;;;65.57;15.77;;;;;;;6.93;89.13;99305.27;2169241;81;20933;-84
2022/10/31 06:37:51;;;;;;;133.97;21.93;;;;;;;7.02;89.06;99302.13;2168247;81;20961;-85
2022/10/31 06:40:52;;;;;;;31.37;14.57;;;;;;;7.12;89.20;99305.91;2167934;81;21024;-85
2022/10/31 06:43:52;;;;;;;20.57;13.83;;;;;;;7.19;89.05;99316.55;2168661;81;20980;-84
2022/10/31 06:46:53;;;;;;;26.80;17.87;;;;;;;7.26;89.34;99317.21;2167235;81;20976;-84
2022/10/31 06:49:53;;;;;;;63.20;17.23;;;;;;;7.38;89.79;99320.62;2167473;82;21540;-84
2022/10/31 06:52:56;;;;;;;35.77;15.97;;;;;;;7.48;89.95;99317.48;2166677;81;21005;-84
2022/10/31 06:55:57;;;;;;;42.37;15.37;;;;;;;7.61;90.26;99322.22;2166631;81;20980;-84
2022/10/31 06:58:57;;;;;;;27.77;15.27;;;;;;;7.77;90.50;99321.39;2166749;81;21000;-83
2022/10/31 07:01:58;;;;;;;193.83;20.40;;;;;;;7.92;90.51;99325.78;2167502;81;21542;-84
2022/10/31 07:04:58;;;;;;;18.10;13.40;;;;;;;8.07;90.65;99325.35;2168862;81;20953;-84
2022/10/31 07:07:58;;;;;;;19.43;13.27;;;;;;;8.17;90.44;99328.69;2167870;81;20996;-85
2022/10/31 07:10:59;;;;;;;86.87;16.83;;;;;;;8.29;90.63;99329.92;2167192;81;21991;-85
2022/10/31 07:13:59;;;;;;;75.97;17.00;;;;;;;8.44;90.67;99328.62;2167098;81;20933;-84
2022/10/31 07:17:00;;;;;;;;;;;;;;;;;;;;;
2022/10/31 07:20:00;;;;;;;18.80;13.43;;;;;;;8.74;90.74;99333.39;2169104;81;21020;-84
2022/10/31 07:23:00;;;;;;;19.00;12.77;;;;;;;8.89;90.76;99332.49;2167238;81;21056;-83
2022/10/31 07:26:01;;;;;;;16.47;12.33;;;;;;;9.04;91.02;99327.22;2168664;81;20948;-83
2022/10/31 07:29:01;;;;;;;18.07;13.60;;;;;;;9.20;90.94;99330.25;2168662;81;20963;-84
2022/10/31 07:32:02;;;;;;;19.17;12.77;;;;;;;9.38;91.07;99329.82;2167020;82;21051;-85
2022/10/31 07:35:05;;;;;;;24.47;13.30;;;;;;;9.54;91.38;99320.25;2167315;81;20999;-86
2022/10/31 07:38:05;;;;;;;15.07;12.07;;;;;;;9.80;91.59;99327.79;2160825;82;21023;-85
2022/10/31 07:41:06;;;;;;;18.97;12.20;;;;;;;9.99;91.62;99326.05;2167024;82;21059;-85
2022/10/31 07:44:06;;;;;;;67.57;15.03;;;;;;;10.20;91.98;99326.95;2166917;81;20991;-85
2022/10/31 07:47:07;;;;;;;31.67;13.70;;;;;;;10.41;91.72;99334.38;2167931;81;21368;-85
2022/10/31 07:50:07;;;;;;;28.83;14.23;;;;;;;10.62;92.03;99332.19;2167707;81;21016;-84
2022/10/31 07:53:07;;;;;;;22.80;12.93;;;;;;;10.85;92.57;99332.20;2166192;82;21027;-84
2022/10/31 07:56:08;;;;;;;18.52;12.73;;;;;;;11.09;93.14;99330.87;2167420;81;20949;-85
2022/10/31 07:59:08;;;;;;;21.90;12.95;;;;;;;11.36;93.61;99330.48;2167312;81;21007;-85
2022/10/31 08:02:09;;;;;;;21.00;16.40;;;;;;;11.63;94.20;99328.73;2167964;81;20953;-86
2022/10/31 08:05:09;;;;;;;46.60;34.30;;;;;;;11.84;93.89;99331.70;2168401;81;21046;-84
2022/10/31 08:08:09;;;;;;;48.95;24.92;;;;;;;12.10;94.61;99336.88;2167297;81;21483;-85
2022/10/31 08:11:10;;;;;;;35.60;21.15;;;;;;;12.37;94.39;99336.81;2166537;81;20996;-84
2022/10/31 08:14:10;;;;;;;40.83;23.32;;;;;;;12.64;94.14;99340.19;2167043;82;21000;-83
2022/10/31 08:17:11;;;;;;;46.90;26.12;;;;;;;12.91;93.82;99343.53;2169734;81;20976;-85
2022/10/31 08:20:11;;;;;;;56.05;23.50;;;;;;;13.17;93.61;99338.19;2168866;82;21016;-84
2022/10/31 08:23:12;;;;;;;44.48;24.57;;;;;;;13.39;92.66;99339.25;2170159;82;20973;-83
2022/10/31 08:26:12;;;;;;;42.70;26.02;;;;;;;13.65;93.04;99335.52;2167985;81;21347;-84
2022/10/31 08:29:12;;;;;;;44.48;24.57;;;;;;;13.89;91.96;99334.41;2167371;81;20976;-84
2022/10/31 08:32:15;;;;;;;43.40;24.70;;;;;;;14.02;90.93;99336.67;2156069;82;21036;-83
2022/10/31 08:35:15;;;;;;;39.33;24.02;;;;;;;14.15;89.95;99334.98;2169792;81;21359;-85
2022/10/31 08:38:15;;;;;;;45.12;25.48;;;;;;;14.26;89.85;99334.61;2170103;81;20985;-84
2022/10/31 08:41:16;;;;;;;38.88;23.52;;;;;;;14.38;89.44;99334.66;2171106;81;20937;-84
2022/10/31 08:44:19;;;;;;;46.25;25.57;;;;;;;14.47;89.52;99336.05;2170152;82;21008;-86
2022/10/31 08:47:20;;;;;;;43.68;24.80;;;;;;;14.61;89.04;99338.29;2169186;82;20937;-86
2022/10/31 08:50:21;;;;;;;43.10;25.15;;;;;;;14.69;88.73;99338.75;2168849;82;20976;-83
2022/10/31 08:53:22;;;;;;;37.55;22.82;;;;;;;14.79;88.97;99335.31;2167737;81;21502;-84
2022/10/31 08:56:22;;;;;;;40.08;22.93;;;;;;;14.89;88.05;99341.91;2167075;81;20956;-84
2022/10/31 08:59:22;;;;;;;42.27;22.50;;;;;;;14.95;88.00;99346.30;2168392;81;21000;-84
2022/10/31 09:02:22;;;;;;;34.63;20.65;;;;;;;15.03;87.24;99341.94;2169280;81;21030;-84
2022/10/31 09:05:25;;;;;;;35.78;22.32;;;;;;;15.08;87.32;99344.14;2168150;81;21936;-84
2022/10/31 09:08:25;;;;;;;42.43;21.25;;;;;;;15.18;87.20;99348.53;2163249;82;20973;-85
2022/10/31 09:11:26;;;;;;;36.55;19.98;;;;;;;15.23;87.03;99346.78;2169069;81;20997;-83
2022/10/31 09:14:26;;;;;;;36.13;20.00;;;;;;;15.32;87.19;99348.98;2167799;81;21369;-81
2022/10/31 09:17:26;;;;;;;37.48;22.67;;;;;;;15.40;87.07;99346.80;2166143;81;20968;-85
2022/10/31 09:20:27;;;;;;;42.50;21.68;;;;;;;15.53;87.38;99355.57;2169385;81;21274;-83
2022/10/31 09:23:27;;;;;;;33.00;21.70;;;;;;;15.68;87.15;99354.31;2167993;81;21031;-83
2022/10/31 09:26:28;;;;;;;34.18;19.98;;;;;;;15.83;86.35;99357.38;2168938;81;21473;-82
2022/10/31 09:29:28;;;;;;;44.05;19.92;;;;;;;15.92;85.78;99347.70;2166782;81;20992;-83
2022/10/31 09:32:28;;;;;;;39.15;19.57;;;;;;;15.97;85.50;99354.28;2168094;81;21442;-82
2022/10/31 09:35:29;;;;;;;35.95;19.85;;;;;;;16.05;85.58;99358.22;2167250;81;21028;-81
2022/10/31 09:38:29;;;;;;;36.60;18.52;;;;;;;16.17;85.32;99355.55;2167725;81;20941;-81
2022/10/31 09:41:30;;;;;;;35.25;19.77;;;;;;;16.28;84.94;99362.11;2166648;81;21455;-86
2022/10/31 09:44:30;;;;;;;32.13;18.98;;;;;;;16.33;84.52;99358.58;2165688;81;21043;-84
2022/10/31 09:47:33;;;;;;;33.78;18.42;;;;;;;16.43;84.58;99354.16;2167773;81;20957;-85
2022/10/31 09:50:33;;;;;;;33.53;18.35;;;;;;;16.54;84.49;99358.53;2162763;82;20976;-83
2022/10/31 09:53:33;;;;;;;32.30;17.25;;;;;;;16.67;83.87;99355.44;2167569;81;21079;-84
2022/10/31 09:56:35;;;;;;;32.98;17.27;;;;;;;16.73;83.48;99355.41;2166826;81;21059;-83
2022/10/31 09:59:34;;;;;;;28.55;17.37;;;;;;;16.81;83.46;99352.73;2165740;81;21289;-81
2022/10/31 10:02:34;;;;;;;33.08;18.17;;;;;;;16.86;82.67;99360.18;2167001;81;21435;-84
2022/10/31 10:05:35;;;;;;;33.75;17.85;;;;;;;16.87;82.28;99362.80;2167163;81;21039;-84
2022/10/31 10:08:35;;;;;;;28.38;16.80;;;;;;;16.97;82.78;99357.04;2168340;81;21360;-83
2022/10/31 10:11:36;;;;;;;33.10;16.70;;;;;;;17.09;82.28;99352.13;2167703;81;20957;-84
2022/10/31 10:14:36;;;;;;;28.38;16.75;;;;;;;17.16;82.23;99358.68;2169098;81;21314;-84
2022/10/31 10:17:36;;;;;;;28.35;17.02;;;;;;;17.26;81.71;99352.02;2168745;81;20945;-84
2022/10/31 10:20:37;;;;;;;28.80;16.10;;;;;;;17.33;81.32;99349.77;2168462;81;21078;-85
2022/10/31 10:23:37;;;;;;;29.20;16.73;;;;;;;17.42;81.32;99356.33;2168671;81;21027;-82
2022/10/31 10:26:38;;;;;;;31.48;17.02;;;;;;;17.50;80.76;99359.78;2168036;81;20969;-84
2022/10/31 10:29:39;;;;;;;33.42;17.37;;;;;;;17.55;80.55;99360.63;2169738;81;21428;-84
2022/10/31 10:32:39;;;;;;;31.85;15.05;;;;;;;17.64;80.39;99355.71;2166183;81;21132;-83
2022/10/31 10:35:40;;;;;;;27.75;16.10;;;;;;;17.72;80.08;99359.20;2167882;82;20957;-82
2022/10/31 10:38:40;;;;;;;32.25;15.43;;;;;;;17.77;79.58;99352.98;2168255;81;21067;-84
2022/10/31 10:41:41;;;;;;;25.62;14.70;;;;;;;17.82;78.88;99349.86;2167370;81;21001;-84
2022/10/31 10:48:00;;;;;;;30.90;14.85;;;;;;;17.94;79.13;99346.67;2167856;82;20995;-83
2022/10/31 10:51:00;;;;;;;46.28;15.88;;;;;;;18.01;78.54;99341.75;2169805;81;21348;-83
2022/10/31 10:54:01;;;;;;;34.03;15.70;;;;;;;18.04;78.14;99340.40;2167402;81;21080;-82
2022/10/31 10:57:01;;;;;;;29.60;14.43;;;;;;;18.12;78.44;99336.78;2167305;81;20976;-81
2022/10/31 11:00:03;;;;;;;31.30;14.58;;;;;;;18.19;77.17;99341.55;2169674;81;20992;-82
2022/10/31 11:03:02;;;;;;;31.15;15.65;;;;;;;18.20;77.33;99338.02;2169259;81;21357;-84
2022/10/31 11:06:02;;;;;;;33.28;16.27;;;;;;;18.26;77.15;99337.11;2169623;81;21260;-82
2022/10/31 11:09:03;;;;;;;29.30;14.75;;;;;;;18.34;77.56;99334.81;2169448;81;20973;-83
2022/10/31 11:12:03;;;;;;;34.30;14.40;;;;;;;18.38;76.67;99334.33;2169805;81;20996;-84
2022/10/31 11:15:04;;;;;;;23.77;14.30;;;;;;;18.39;76.69;99336.95;2169273;81;20984;-82
2022/10/31 11:18:04;;;;;;;25.85;15.90;;;;;;;18.43;76.62;99336.02;2168912;81;20988;-84
2022/10/31 11:21:05;;;;;;;28.00;14.70;;;;;;;18.43;76.05;99332.06;2169175;81;21031;-83
2022/10/31 11:24:05;;;;;;;28.32;13.90;;;;;;;18.43;75.68;99330.73;2169381;82;21020;-83
2022/10/31 11:27:05;;;;;;;25.02;13.85;;;;;;;18.45;76.01;99324.98;2169538;81;21287;-84
2022/10/31 11:30:06;;;;;;;25.70;13.40;;;;;;;18.51;76.05;99321.39;2170054;81;20956;-83
2022/10/31 11:33:06;;;;;;;26.73;13.85;;;;;;;18.57;75.39;99327.92;2169614;81;21024;-82
2022/10/31 11:36:06;;;;;;;36.98;13.98;;;;;;;18.58;74.67;99320.87;2170371;81;20992;-84
2022/10/31 11:39:07;;;;;;;28.45;14.18;;;;;;;18.58;74.58;99318.22;2170798;81;20956;-84
2022/10/31 11:42:07;;;;;;;27.93;14.50;;;;;;;18.59;75.09;99321.30;2170656;81;21000;-82
2022/10/31 11:45:08;;;;;;;34.48;14.70;;;;;;;18.63;74.51;99321.27;2171768;81;21309;-84
2022/10/31 11:48:08;;;;;;;29.45;12.95;;;;;;;18.64;74.16;99312.89;2173113;81;20941;-83
2022/10/31 11:51:09;;;;;;;29.98;13.78;;;;;;;18.68;75.23;99318.11;2172756;81;20968;-83
2022/10/31 11:54:09;;;;;;;60.73;31.45;;;;;;;18.80;75.12;99312.23;2171614;81;21004;-83
2022/10/31 11:57:09;;;;;;;28.73;16.45;;;;;;;18.88;74.60;99311.23;2171453;81;21259;-84
2022/10/31 12:00:10;;;;;;;26.57;14.23;;;;;;;18.92;74.60;99308.97;2178534;82;21070;-84
2022/10/31 12:03:10;;;;;;;27.27;14.13;;;;;;;18.96;74.68;99304.50;2173009;82;20933;-85
2022/10/31 12:06:11;;;;;;;29.23;13.00;;;;;;;18.99;74.06;99307.98;2170260;81;21080;-84
2022/10/31 12:09:12;;;;;;;28.40;14.73;;;;;;;18.99;73.58;99303.14;2170108;82;21068;-84
2022/10/31 12:12:12;;;;;;;26.95;14.60;;;;;;;18.99;73.38;99300.04;2169424;81;21040;-84
2022/10/31 12:15:13;;;;;;;21.75;12.90;;;;;;;18.97;73.30;99300.96;2170339;81;21423;-84
2022/10/31 12:18:13;;;;;;;26.52;14.07;;;;;;;18.97;73.81;99295.22;2170277;81;20933;-83
2022/10/31 12:21:13;;;;;;;20.80;12.75;;;;;;;19.00;72.72;99297.82;2169126;81;21000;-85
2022/10/31 12:24:14;;;;;;;25.30;12.25;;;;;;;18.97;73.35;99291.25;2169576;81;21047;-83
2022/10/31 12:27:14;;;;;;;27.05;12.30;;;;;;;18.98;73.13;99290.36;2169634;81;20941;-84
2022/10/31 12:30:15;;;;;;;22.98;12.85;;;;;;;19.02;72.99;99295.16;2169261;81;21035;-81
2022/10/31 12:33:15;;;;;;;29.95;12.37;;;;;;;19.04;72.50;99294.68;2169231;81;20956;-83
2022/10/31 12:36:15;;;;;;;23.92;11.63;;;;;;;19.06;72.06;99294.21;2169409;81;21432;-83
2022/10/31 12:39:16;;;;;;;22.10;12.13;;;;;;;19.05;72.05;99294.66;2169449;81;20989;-82
2022/10/31 12:42:16;;;;;;;26.90;12.88;;;;;;;19.09;72.18;99292.42;2169404;81;21027;-83
2022/10/31 12:45:17;;;;;;;27.25;12.18;;;;;;;19.08;72.23;99294.64;2169309;81;21392;-83
2022/10/31 12:48:17;;;;;;;27.30;11.38;;;;;;;19.11;71.98;99295.05;2169976;81;21428;-83
2022/10/31 12:51:17;;;;;;;21.65;12.47;;;;;;;19.12;72.01;99293.27;2169593;81;20972;-82
2022/10/31 12:54:18;;;;;;;22.17;11.75;;;;;;;19.09;71.57;99293.75;2168590;81;21099;-83
2022/10/31 12:57:18;;;;;;;98.33;15.78;;;;;;;19.09;71.80;99294.19;2168940;81;21015;-80
2022/10/31 13:00:19;;;;;;;22.93;10.15;;;;;;;19.07;71.27;99292.89;2168905;81;21031;-82
2022/10/31 13:03:19;;;;;;;24.45;11.60;;;;;;;19.07;71.64;99294.22;2168608;81;20968;-83
2022/10/31 13:06:19;;;;;;;21.12;10.30;;;;;;;19.08;71.54;99290.67;2168353;81;20937;-82
2022/10/31 13:09:20;;;;;;;25.97;11.10;;;;;;;19.13;71.56;99289.73;2170929;81;20965;-82
2022/10/31 13:12:20;;;;;;;52.93;12.07;;;;;;;19.14;71.17;99293.67;2165571;81;21771;-84
2022/10/31 13:15:21;;;;;;;23.95;11.35;;;;;;;19.15;71.27;99288.81;2168912;81;21071;-82
2022/10/31 13:18:21;;;;;;;24.35;11.10;;;;;;;19.15;70.67;99289.25;2168829;82;21017;-81
2022/10/31 13:21:21;;;;;;;24.35;11.12;;;;;;;19.10;70.28;99290.65;2167905;82;21031;-84
2022/10/31 13:24:22;;;;;;;21.42;10.50;;;;;;;19.08;71.02;99286.70;2167162;81;20985;-83
2022/10/31 13:27:22;;;;;;;25.62;11.65;;;;;;;19.06;71.10;99287.14;2166805;81;21039;-82
2022/10/31 13:30:23;;;;;;;21.15;11.93;;;;;;;19.03;70.97;99283.22;2166892;81;21731;-82
2022/10/31 13:33:23;;;;;;;24.18;11.28;;;;;;;19.02;71.26;99289.86;2166872;81;20965;-83
2022/10/31 13:36:23;;;;;;;22.50;10.80;;;;;;;19.00;71.52;99288.56;2169492;81;21032;-82
2022/10/31 13:39:24;;;;;;;26.37;10.85;;;;;;;18.99;71.17;99292.11;2168175;81;20985;-81
2022/10/31 13:42:24;;;;;;;36.77;12.05;;;;;;;18.97;71.21;99292.58;2168385;81;21009;-81
2022/10/31 13:45:25;;;;;;;36.35;11.68;;;;;;;18.96;71.37;99290.83;2168075;81;20968;-84
2022/10/31 13:48:25;;;;;;;769.73;63.92;;;;;;;18.95;71.29;99294.81;2170203;81;20996;-80
2022/10/31 13:51:28;;;;;;;39.08;12.85;;;;;;;18.92;71.15;99296.19;2168392;81;20980;-83
2022/10/31 13:54:26;;;;;;;28.55;11.22;;;;;;;18.89;71.28;99289.17;2169031;81;21116;-83
2022/10/31 13:57:26;;;;;;;26.52;10.95;;;;;;;18.86;71.41;99294.50;2170358;82;20988;-82